TimeEST,TemperatureF,Dew PointF,Humidity,Sea Level PressureIn,VisibilityMPH,Wind Direction,Wind SpeedMPH,Gust SpeedMPH,PrecipitationIn,Events,Conditions,WindDirDegrees,DateUTC
12:31 AM,-9999,-9999,N/A,29.80,2.5,WSW,15.0,24.2,0.00,,Unknown,250,2013-02-04 05:31:00
12:34 AM,-9999,-9999,N/A,29.81,1.0,West,13.8,24.2,0.00,,Unknown,270,2013-02-04 05:34:00
12:41 AM,-9999,-9999,N/A,29.81,0.2,West,6.9,19.6,0.00,,Unknown,280,2013-02-04 05:41:00
12:54 AM,-9999,-9999,N/A,29.81,0.5,WNW,5.8,-,0.02,,Unknown,300,2013-02-04 05:54:00
1:01 AM,-9999,-9999,N/A,29.81,1.2,SW,10.4,-,0.00,,Unknown,230,2013-02-04 06:01:00
1:05 AM,-9999,-9999,N/A,29.81,0.8,WSW,15.0,-,0.00,,Unknown,250,2013-02-04 06:05:00
1:54 AM,-9999,-9999,N/A,29.81,0.2,West,11.5,-,0.04,,Unknown,260,2013-02-04 06:54:00
2:03 AM,-9999,-9999,N/A,29.82,0.2,WSW,6.9,-,0.01,,Unknown,250,2013-02-04 07:03:00
2:10 AM,-9999,-9999,N/A,29.82,0.2,West,9.2,-,0.02,,Unknown,260,2013-02-04 07:10:00
2:54 AM,-9999,-9999,N/A,29.82,0.2,WSW,9.2,-,0.09,,Unknown,240,2013-02-04 07:54:00
3:19 AM,-9999,-9999,N/A,29.82,0.5,West,5.8,-,0.02,,Unknown,280,2013-02-04 08:19:00
3:27 AM,-9999,-9999,N/A,29.82,1.2,West,8.1,-,0.03,,Unknown,270,2013-02-04 08:27:00
3:33 AM,-9999,-9999,N/A,29.82,2.0,WSW,5.8,-,0.03,,Unknown,250,2013-02-04 08:33:00
3:36 AM,-9999,-9999,N/A,29.82,3.0,WSW,5.8,-,0.03,,Unknown,240,2013-02-04 08:36:00
3:49 AM,-9999,-9999,N/A,29.82,9.0,WSW,5.8,-,0.03,,Overcast,240,2013-02-04 08:49:00
3:54 AM,-9999,-9999,N/A,29.82,10.0,SW,9.2,-,0.03,,Overcast,230,2013-02-04 08:54:00
4:18 AM,-9999,-9999,N/A,29.82,1.8,WSW,12.7,-,0.00,,Unknown,240,2013-02-04 09:18:00
4:30 AM,-9999,-9999,N/A,29.82,3.0,WSW,11.5,-,0.00,,Unknown,240,2013-02-04 09:30:00
5:54 AM,-9999,-9999,N/A,29.86,4.0,NW,10.4,-,0.04,,Unknown,310,2013-02-04 10:54:00
6:14 AM,-9999,-9999,N/A,29.86,10.0,WSW,5.8,-,0.01,,Overcast,250,2013-02-04 11:14:00
6:54 AM,19.0,14.0,81,29.87,10.0,WSW,5.8,-,0.01,,Overcast,240,2013-02-04 11:54:00
7:14 AM,23.0,15.8,74,29.87,2.5,WSW,9.2,-,0.00,Snow,Light Snow,240,2013-02-04 12:14:00
7:20 AM,26.6,15.8,64,29.87,1.0,WSW,6.9,-,0.00,Snow,Light Snow,250,2013-02-04 12:20:00
7:23 AM,28.4,15.8,59,29.88,0.8,WSW,9.2,-,0.00,Snow,Light Snow,240,2013-02-04 12:23:00
7:54 AM,32.0,15.1,50,29.88,0.2,WSW,9.2,-,0.01,Snow,Heavy Snow,250,2013-02-04 12:54:00
8:10 AM,30.2,15.8,55,29.89,0.2,WSW,9.2,-,0.02,Snow,Heavy Snow,250,2013-02-04 13:10:00
8:54 AM,28.0,15.1,58,29.90,0.2,West,10.4,-,0.10,Snow,Heavy Snow,270,2013-02-04 13:54:00
9:22 AM,33.8,15.8,48,29.91,0.5,West,5.8,-,0.02,Snow,Snow,260,2013-02-04 14:22:00
9:33 AM,33.8,15.8,48,29.90,1.2,West,8.1,-,0.02,Snow,Light Snow,280,2013-02-04 14:33:00
9:40 AM,33.8,12.2,41,29.91,1.8,NW,11.5,16.1,0.02,Snow,Light Snow,320,2013-02-04 14:40:00
9:44 AM,30.2,10.4,44,29.91,2.0,WNW,11.5,16.1,0.02,Snow,Light Snow,300,2013-02-04 14:44:00
9:54 AM,28.9,9.0,43,29.91,2.5,NW,13.8,-,0.02,Snow,Light Snow,310,2013-02-04 14:54:00
10:04 AM,28.4,8.6,43,29.91,1.5,NW,12.7,21.9,0.00,Snow,Light Snow,320,2013-02-04 15:04:00
10:11 AM,28.4,8.6,43,29.91,3.0,WNW,10.4,-,0.00,Snow,Light Snow,300,2013-02-04 15:11:00
10:20 AM,28.4,8.6,43,29.91,9.0,NW,10.4,-,0.00,,Overcast,310,2013-02-04 15:20:00
10:54 AM,32.0,7.0,35,29.91,10.0,WNW,11.5,-,0.00,,Overcast,300,2013-02-04 15:54:00
11:54 AM,30.0,8.1,40,29.91,3.0,WNW,13.8,-,0.00,Snow,Light Snow,300,2013-02-04 16:54:00
12:11 PM,30.2,8.6,40,29.91,2.0,NW,11.5,-,0.00,Snow,Light Snow,310,2013-02-04 17:11:00
12:26 PM,30.2,10.4,44,29.91,1.8,NW,11.5,-,0.00,Snow,Light Snow,310,2013-02-04 17:26:00
12:50 PM,30.2,10.4,44,29.90,1.0,WNW,11.5,-,0.00,Snow,Light Snow,290,2013-02-04 17:50:00
12:54 PM,30.9,10.0,42,29.90,1.2,NW,10.4,-,0.00,Snow,Light Snow,310,2013-02-04 17:54:00
1:18 PM,35.6,10.4,35,29.90,1.0,NW,9.2,-,0.00,Snow,Light Snow,310,2013-02-04 18:18:00
1:34 PM,30.2,10.4,44,29.90,1.5,WNW,9.2,-,0.00,Snow,Light Snow,300,2013-02-04 18:34:00
1:47 PM,32.0,10.4,41,29.90,3.0,WNW,9.2,-,0.00,Snow,Light Snow,300,2013-02-04 18:47:00
1:54 PM,32.0,10.9,42,29.90,1.5,WNW,13.8,-,0.00,Snow,Light Snow,300,2013-02-04 18:54:00
1:59 PM,30.2,10.4,44,29.90,0.8,WNW,10.4,-,0.00,Snow,Light Snow,300,2013-02-04 18:59:00
2:08 PM,32.0,10.4,41,29.90,1.2,West,6.9,-,0.01,Snow,Light Snow,280,2013-02-04 19:08:00
2:54 PM,34.0,12.0,40,29.90,1.2,West,8.1,-,0.01,Snow,Light Snow,270,2013-02-04 19:54:00
2:58 PM,33.8,12.2,41,29.90,0.8,West,6.9,-,0.00,Snow,Light Snow,280,2013-02-04 19:58:00
3:08 PM,33.8,12.2,41,29.90,0.5,WNW,9.2,-,0.00,Snow,Snow,290,2013-02-04 20:08:00
3:54 PM,35.1,15.1,44,29.91,0.8,WSW,5.8,-,0.00,Snow,Light Snow,250,2013-02-04 20:54:00
4:28 PM,33.8,15.8,48,29.90,0.2,West,4.6,-,0.02,Snow,Heavy Snow,260,2013-02-04 21:28:00
4:37 PM,35.6,15.8,44,29.90,0.8,WSW,5.8,-,0.02,Snow,Light Snow,240,2013-02-04 21:37:00
4:54 PM,36.0,15.1,43,29.90,0.2,WSW,5.8,-,0.03,Snow,Heavy Snow,250,2013-02-04 21:54:00
5:08 PM,35.6,15.8,44,29.90,0.2,WSW,4.6,-,0.01,Snow,Heavy Snow,250,2013-02-04 22:08:00
5:54 PM,36.0,16.0,44,29.91,0.5,WSW,6.9,-,0.05,Snow,Snow,240,2013-02-04 22:54:00
6:52 PM,35.6,15.8,44,29.91,0.5,WSW,6.9,-,0.06,Snow,Snow,240,2013-02-04 23:52:00
6:54 PM,34.0,15.1,46,29.93,0.5,WSW,6.9,-,0.06,Snow,Snow,240,2013-02-04 23:54:00
6:58 PM,33.8,15.8,48,29.91,0.5,West,5.8,-,0.00,Snow,Snow,270,2013-02-04 23:58:00
7:05 PM,30.2,15.8,55,29.92,1.0,WSW,4.6,-,0.00,Snow,Light Snow,240,2013-02-05 00:05:00
7:12 PM,33.8,15.8,48,29.92,1.5,West,4.6,-,0.00,Snow,Light Snow,260,2013-02-05 00:12:00
7:20 PM,33.8,15.8,48,29.91,0.8,WSW,4.6,-,0.00,Snow,Light Snow,250,2013-02-05 00:20:00
7:31 PM,33.8,15.8,48,29.92,1.2,Calm,Calm,-,0.01,Snow,Light Snow,0,2013-02-05 00:31:00
7:45 PM,30.2,15.8,55,29.92,1.0,SW,3.5,-,0.01,Snow,Light Snow,230,2013-02-05 00:45:00
7:54 PM,30.9,15.1,52,29.94,0.5,Calm,Calm,-,0.02,Snow,Snow,0,2013-02-05 00:54:00
8:20 PM,32.0,14.0,48,29.92,1.0,West,9.2,-,0.01,Snow,Light Snow,280,2013-02-05 01:20:00
8:30 PM,30.2,14.0,51,29.92,0.8,West,6.9,-,0.01,Snow,Light Snow,270,2013-02-05 01:30:00
8:38 PM,30.2,14.0,51,29.92,1.0,West,5.8,-,0.02,Snow,Light Snow,260,2013-02-05 01:38:00
8:49 PM,28.4,14.0,55,29.92,1.5,WNW,4.6,-,0.02,Snow,Light Snow,290,2013-02-05 01:49:00
8:54 PM,28.9,14.0,54,29.94,1.0,West,3.5,-,0.02,Snow,Light Snow,270,2013-02-05 01:54:00
9:04 PM,28.4,14.0,55,29.92,1.8,West,4.6,-,0.00,Snow,Light Snow,260,2013-02-05 02:04:00
9:10 PM,28.4,14.0,55,29.92,3.0,West,4.6,-,0.00,Snow,Light Snow,280,2013-02-05 02:10:00
9:33 PM,33.8,12.2,41,29.93,4.0,West,4.6,-,0.00,Snow,Light Snow,260,2013-02-05 02:33:00
9:54 PM,25.0,12.9,60,29.94,5.0,WSW,3.5,-,0.00,Snow,Light Snow,250,2013-02-05 02:54:00
10:54 PM,18.0,12.0,78,29.95,4.0,Calm,Calm,-,0.00,Snow,Light Snow,0,2013-02-05 03:54:00
11:54 PM,18.0,12.0,78,29.96,9.0,Calm,Calm,-,0.00,,Overcast,0,2013-02-05 04:54:00